YCQ weather

Chetwynd Airport
Chetwynd, British Columbia, Canada

Public forecast

Using degrees Celsius for public forecast. Weather courtesy of forecast.io.

Current aviation weather report (METAR) for Chetwynd Airport

Retrieved 2020/08/04 14:00 UTC (17 minutes ago):

CYCQ 041400Z 22009G15KT 35SM FEW040 FEW120 BKN180 OVC210 14/07 A2998 RMK SC1AC2CC3CI3 SC TR ACSL S SLP160 DENSITY ALT 2300FT

Closest aviation forecast (TAF) to Chetwynd Airport

Forecast is more than 12 hours old.

Closest forecast is Fort St John Airport, 44.5 nm (82.5 km) NE. Retrieved 2020-08-04 01:00 UTC (13 hours ago):

TAF CYXJ 040038Z 0401/0405 22012G22KT P6SM FEW060 BKN150 RMK NXT FCST WILL BE ISSUED AT 041445Z